createdAt,value
2017-06-06T04:46:08.811Z,16.72
2017-06-06T04:46:34.318Z,16.66
2017-06-06T04:46:59.773Z,16.68
2017-06-06T04:47:25.251Z,16.68
2017-06-06T04:47:50.730Z,16.69
2017-06-06T04:48:16.196Z,16.57
2017-06-06T04:48:41.659Z,16.69
2017-06-06T04:49:07.126Z,16.65
2017-06-06T04:49:32.581Z,16.65
2017-06-06T04:49:58.063Z,16.66
2017-06-06T04:50:23.570Z,16.61
2017-06-06T04:50:49.025Z,16.71
2017-06-06T04:51:14.532Z,16.76
2017-06-06T04:51:39.982Z,16.71
2017-06-06T04:52:05.500Z,16.81
2017-06-06T04:52:30.981Z,16.71
2017-06-06T04:52:56.466Z,16.78
2017-06-06T04:53:21.961Z,16.87
2017-06-06T04:53:47.397Z,16.76
2017-06-06T04:54:12.847Z,16.84
2017-06-06T04:54:38.326Z,16.84
2017-06-06T04:55:03.822Z,16.81
2017-06-06T04:55:29.284Z,16.86
2017-06-06T04:55:54.752Z,16.83
2017-06-06T04:56:20.235Z,16.84
2017-06-06T04:56:45.714Z,16.79
2017-06-06T04:57:11.184Z,16.76
2017-06-06T04:57:36.648Z,16.83
2017-06-06T04:58:02.132Z,16.81
2017-06-06T04:58:27.616Z,16.89
2017-06-06T04:58:53.053Z,16.9
2017-06-06T04:59:18.528Z,16.89
2017-06-06T04:59:43.993Z,16.84
2017-06-06T05:00:09.477Z,16.86
2017-06-06T05:00:34.950Z,16.83
2017-06-06T05:01:00.397Z,16.86
2017-06-06T05:01:25.886Z,16.81
2017-06-06T05:01:51.369Z,16.87
2017-06-06T05:02:16.821Z,16.81
2017-06-06T05:02:42.313Z,16.84
2017-06-06T05:03:07.759Z,16.87
2017-06-06T05:03:33.231Z,16.89
2017-06-06T05:03:58.713Z,16.86
2017-06-06T05:04:24.196Z,16.9
2017-06-06T05:04:49.653Z,16.93
2017-06-06T05:05:15.140Z,16.96
2017-06-06T05:05:40.616Z,16.93
2017-06-06T05:06:06.126Z,16.91
2017-06-06T05:06:31.616Z,16.93
2017-06-06T05:06:57.086Z,16.93
2017-06-06T05:07:22.578Z,17.05
2017-06-06T05:07:48.033Z,17.05
2017-06-06T05:08:13.509Z,17.08
2017-06-06T05:08:39.009Z,17.04
2017-06-06T05:09:04.476Z,16.99
2017-06-06T05:09:29.940Z,17.08
2017-06-06T05:09:55.407Z,17.09
2017-06-06T05:10:20.888Z,17.15
2017-06-06T05:10:46.377Z,17.14
2017-06-06T05:11:11.869Z,17.23
2017-06-06T05:11:37.340Z,17.15
2017-06-06T05:12:02.823Z,17.23
2017-06-06T05:12:28.363Z,17.23
2017-06-06T05:12:53.827Z,17.26
2017-06-06T05:13:19.313Z,17.22
2017-06-06T05:13:44.806Z,17.23
2017-06-06T05:14:10.267Z,17.16
2017-06-06T05:14:35.780Z,17.23
2017-06-06T05:15:01.256Z,17.27
2017-06-06T05:15:26.741Z,17.23
2017-06-06T05:15:52.215Z,17.36
2017-06-06T05:16:17.682Z,17.27
2017-06-06T05:16:43.136Z,17.26
2017-06-06T05:17:08.640Z,17.33
2017-06-06T05:17:34.140Z,17.27
2017-06-06T05:17:59.651Z,17.3
2017-06-06T05:18:25.127Z,17.33
2017-06-06T05:18:50.589Z,17.31
2017-06-06T05:19:16.067Z,17.3
2017-06-06T05:19:41.521Z,17.31
2017-06-06T05:20:07.003Z,17.33
2017-06-06T05:20:32.458Z,17.33
2017-06-06T05:20:57.992Z,17.27
2017-06-06T05:21:23.486Z,17.33
2017-06-06T05:21:48.952Z,17.34
2017-06-06T05:22:14.429Z,17.33
2017-06-06T05:22:39.922Z,17.29
2017-06-06T05:23:05.431Z,17.38
2017-06-06T05:23:30.893Z,17.36
2017-06-06T05:23:56.370Z,17.24
2017-06-06T05:24:21.838Z,17.38
2017-06-06T05:24:47.288Z,17.36
2017-06-06T05:25:12.775Z,17.31
2017-06-06T05:25:38.289Z,17.36
2017-06-06T05:26:03.719Z,17.34
2017-06-06T05:26:29.160Z,17.31
2017-06-06T05:26:54.640Z,17.33
2017-06-06T05:27:20.126Z,17.33
2017-06-06T05:27:45.578Z,17.38
2017-06-06T05:28:11.067Z,17.34
2017-06-06T05:28:36.572Z,17.33
2017-06-06T05:29:02.083Z,17.38
2017-06-06T05:29:27.581Z,17.31
2017-06-06T05:29:53.054Z,17.39
2017-06-06T05:30:18.676Z,17.3
2017-06-06T05:30:44.145Z,17.46
2017-06-06T05:31:09.645Z,17.41
2017-06-06T05:31:35.120Z,17.44
2017-06-06T05:32:00.592Z,17.42
2017-06-06T05:32:26.080Z,17.42
2017-06-06T05:32:51.546Z,17.49
2017-06-06T05:33:17.028Z,17.46
2017-06-06T05:33:42.513Z,17.46
2017-06-06T05:34:08.012Z,17.52
2017-06-06T05:34:33.471Z,17.46
2017-06-06T05:34:58.965Z,17.51
2017-06-06T05:35:24.434Z,17.57
2017-06-06T05:35:49.890Z,17.59
2017-06-06T05:36:15.355Z,17.65
2017-06-06T05:36:40.837Z,17.6
2017-06-06T05:37:06.336Z,17.63
2017-06-06T05:37:33.723Z,17.65
2017-06-06T05:37:59.225Z,17.74
2017-06-06T05:38:24.702Z,17.79
2017-06-06T05:39:22.703Z,17.8
2017-06-06T05:39:48.170Z,17.82
2017-06-06T05:40:13.676Z,17.94
2017-06-06T05:40:39.150Z,18
2017-06-06T05:41:04.607Z,17.97
2017-06-06T05:41:30.065Z,17.95
2017-06-06T05:41:55.576Z,18
2017-06-06T05:42:21.078Z,18.05
2017-06-06T05:42:46.546Z,17.94
2017-06-06T05:43:12.030Z,18.05
2017-06-06T05:43:37.492Z,18.01
2017-06-06T05:44:03.054Z,17.98
2017-06-06T05:44:28.500Z,17.94
2017-06-06T05:44:54.018Z,18.07
2017-06-06T05:45:19.484Z,18.07
2017-06-06T05:45:44.952Z,18.16
2017-06-06T05:46:10.426Z,18.08
2017-06-06T05:46:35.930Z,18.1
2017-06-06T05:47:01.419Z,18.05
2017-06-06T05:47:26.882Z,18.05
2017-06-06T05:47:52.412Z,18.1
2017-06-06T05:48:17.870Z,18.08
2017-06-06T05:48:43.331Z,18.15
2017-06-06T05:49:08.813Z,18.1
2017-06-06T05:49:34.301Z,18.25
2017-06-06T05:49:59.782Z,18.11
2017-06-06T05:50:25.266Z,18.13
2017-06-06T05:50:50.765Z,18.26
2017-06-06T05:51:16.254Z,18.2
2017-06-06T05:51:41.739Z,18.22
2017-06-06T05:52:07.226Z,18.29
2017-06-06T05:52:32.684Z,18.23
2017-06-06T05:52:58.195Z,18.31
2017-06-06T05:53:23.666Z,18.28
2017-06-06T05:53:49.150Z,18.35
2017-06-06T05:54:14.610Z,18.33
2017-06-06T05:54:40.106Z,18.44
2017-06-06T05:55:05.595Z,18.49
2017-06-06T05:55:31.067Z,18.47
2017-06-06T05:55:56.544Z,18.53
2017-06-06T05:56:22.061Z,18.55
2017-06-06T05:56:47.518Z,18.58
2017-06-06T05:57:13.004Z,18.56
2017-06-06T05:57:38.478Z,18.58
2017-06-06T05:58:03.986Z,18.74
2017-06-06T05:58:29.474Z,18.73
2017-06-06T05:58:54.958Z,18.73
2017-06-06T05:59:20.463Z,18.75
2017-06-06T05:59:45.948Z,18.77
2017-06-06T06:00:11.390Z,18.78
2017-06-06T06:00:36.883Z,18.83
2017-06-06T06:01:02.384Z,18.88
2017-06-06T06:01:27.882Z,18.88
2017-06-06T06:01:53.372Z,18.74
2017-06-06T06:02:18.874Z,18.84
2017-06-06T06:02:44.365Z,18.88
2017-06-06T06:03:09.849Z,18.84
2017-06-06T06:03:35.316Z,18.88
2017-06-06T06:04:00.808Z,18.89
2017-06-06T06:04:26.289Z,18.86
2017-06-06T06:04:51.803Z,18.84
2017-06-06T06:05:17.295Z,18.9
2017-06-06T06:05:42.764Z,18.89
2017-06-06T06:06:08.243Z,18.96
2017-06-06T06:06:33.675Z,18.9
2017-06-06T06:06:59.161Z,18.92
2017-06-06T06:07:24.653Z,18.99
2017-06-06T06:07:50.120Z,19.08
2017-06-06T06:08:15.606Z,19.08
2017-06-06T06:08:41.085Z,19.11
2017-06-06T06:09:06.570Z,19.02
2017-06-06T06:09:32.056Z,19.07
2017-06-06T06:09:57.548Z,19.12
2017-06-06T06:10:23.035Z,19.21
2017-06-06T06:10:48.525Z,19.18
2017-06-06T06:11:14.002Z,19.26
2017-06-06T06:11:39.483Z,19.34
2017-06-06T06:12:04.959Z,19.26
2017-06-06T06:12:30.420Z,19.27
2017-06-06T06:12:55.905Z,19.27
2017-06-06T06:13:21.380Z,19.34
2017-06-06T06:13:46.836Z,19.4
2017-06-06T06:14:12.304Z,19.41
2017-06-06T06:14:37.822Z,19.47
2017-06-06T06:15:03.264Z,19.47
2017-06-06T06:15:28.757Z,19.54
2017-06-06T06:15:54.222Z,19.58
2017-06-06T06:16:19.709Z,19.54
2017-06-06T06:16:45.170Z,19.55
2017-06-06T06:17:10.647Z,19.55
2017-06-06T06:17:36.131Z,19.55
2017-06-06T06:18:01.608Z,19.59
2017-06-06T06:18:27.078Z,19.58
2017-06-06T06:18:52.579Z,19.67
2017-06-06T06:19:18.057Z,19.58
2017-06-06T06:19:43.505Z,19.63
2017-06-06T06:20:08.981Z,19.59
2017-06-06T06:20:34.453Z,19.63
2017-06-06T06:20:59.954Z,19.63
2017-06-06T06:21:25.434Z,19.66
2017-06-06T06:21:50.929Z,19.62
2017-06-06T06:22:16.416Z,19.67
2017-06-06T06:22:41.878Z,19.62
2017-06-06T06:23:07.343Z,19.64
2017-06-06T06:23:32.826Z,19.63
2017-06-06T06:23:58.344Z,19.66
2017-06-06T06:24:23.832Z,19.59
2017-06-06T06:24:49.296Z,19.58
2017-06-06T06:25:14.759Z,19.63
2017-06-06T06:25:40.238Z,19.76
2017-06-06T06:26:05.696Z,19.71
2017-06-06T06:26:31.187Z,19.77
2017-06-06T06:26:56.673Z,19.82
2017-06-06T06:27:22.143Z,19.88
2017-06-06T06:27:47.617Z,19.88
2017-06-06T06:28:13.105Z,19.91
2017-06-06T06:28:38.572Z,19.85
2017-06-06T06:29:04.038Z,19.88
2017-06-06T06:29:29.512Z,19.79
2017-06-06T06:29:55.013Z,19.81
2017-06-06T06:30:20.488Z,19.81
2017-06-06T06:30:45.967Z,19.86
2017-06-06T06:31:11.439Z,19.82
2017-06-06T06:31:36.926Z,19.84
2017-06-06T06:32:02.380Z,19.79
2017-06-06T06:32:27.863Z,19.74
2017-06-06T06:32:53.343Z,19.82
2017-06-06T06:33:18.850Z,19.81
2017-06-06T06:33:44.317Z,19.84
2017-06-06T06:34:09.843Z,19.96
2017-06-06T06:34:35.354Z,19.95
2017-06-06T06:35:00.853Z,19.96
2017-06-06T06:35:26.309Z,20.06
2017-06-06T06:35:51.797Z,20.11
2017-06-06T06:36:17.276Z,20.19
2017-06-06T06:36:42.768Z,20.09
2017-06-06T06:37:08.246Z,20.34
2017-06-06T06:37:33.729Z,20.37
2017-06-06T06:37:59.215Z,20.47
2017-06-06T06:38:24.698Z,20.59
2017-06-06T06:38:50.169Z,20.56
2017-06-06T06:39:15.639Z,20.72
2017-06-06T06:39:41.128Z,20.8
2017-06-06T06:40:06.604Z,20.78
2017-06-06T06:40:32.088Z,20.95
2017-06-06T06:40:57.545Z,20.93
2017-06-06T06:41:23.008Z,20.96
2017-06-06T06:41:48.485Z,21.11
2017-06-06T06:42:13.955Z,21.05
2017-06-06T06:42:39.449Z,21.14
2017-06-06T06:43:04.929Z,21.15
2017-06-06T06:43:30.388Z,21.24
2017-06-06T06:43:55.863Z,21.24
2017-06-06T06:44:21.338Z,21.32
2017-06-06T06:44:46.810Z,21.39
2017-06-06T06:45:12.292Z,21.39
2017-06-06T06:45:37.771Z,21.39
2017-06-06T06:46:03.238Z,21.48
2017-06-06T06:46:28.749Z,21.48
2017-06-06T06:46:54.244Z,21.52
2017-06-06T06:47:19.766Z,21.55
2017-06-06T06:47:45.240Z,21.58
2017-06-06T06:48:10.699Z,21.67
2017-06-06T06:48:36.178Z,21.7
2017-06-06T06:49:01.654Z,21.69
2017-06-06T06:49:27.122Z,21.7
2017-06-06T06:49:52.599Z,21.76
2017-06-06T06:50:18.082Z,21.8
2017-06-06T06:50:43.562Z,21.83
2017-06-06T06:51:09.046Z,21.77
2017-06-06T06:51:34.524Z,21.88
2017-06-06T06:52:00.012Z,21.82
2017-06-06T06:52:25.484Z,21.77
2017-06-06T06:52:50.961Z,21.8
2017-06-06T06:53:16.432Z,21.76
2017-06-06T06:53:41.914Z,21.76
2017-06-06T06:54:07.388Z,21.76
2017-06-06T06:54:32.882Z,21.82
2017-06-06T06:54:58.371Z,21.79
2017-06-06T06:55:23.843Z,21.7
2017-06-06T06:55:49.306Z,21.73
2017-06-06T06:56:14.784Z,21.69
2017-06-06T06:56:40.243Z,21.55
2017-06-06T06:57:05.727Z,21.58
2017-06-06T06:57:31.209Z,21.43
2017-06-06T06:57:56.684Z,21.43
2017-06-06T06:58:22.157Z,21.4
2017-06-06T06:58:47.627Z,21.37
2017-06-06T06:59:13.132Z,21.27
2017-06-06T06:59:38.587Z,21.27
2017-06-06T07:00:04.047Z,21.17
2017-06-06T07:00:29.525Z,21.11
2017-06-06T07:00:54.998Z,21.07
2017-06-06T07:01:20.475Z,21.09
2017-06-06T07:01:45.953Z,21.09
2017-06-06T07:02:11.408Z,20.95
2017-06-06T07:02:36.901Z,20.96
2017-06-06T07:03:02.410Z,20.8
2017-06-06T07:03:27.857Z,20.8
2017-06-06T07:03:53.338Z,20.82
2017-06-06T07:04:18.806Z,20.82
2017-06-06T07:04:44.286Z,20.77
2017-06-06T07:05:09.771Z,20.78
2017-06-06T07:05:35.245Z,20.82
2017-06-06T07:06:00.723Z,20.8
2017-06-06T07:06:26.227Z,20.8
2017-06-06T07:06:51.693Z,20.7
2017-06-06T07:07:17.196Z,20.8
2017-06-06T07:07:42.686Z,20.74
2017-06-06T07:08:08.155Z,20.69
2017-06-06T07:08:33.649Z,20.72
2017-06-06T07:08:59.113Z,20.7
2017-06-06T07:09:24.594Z,20.7
2017-06-06T07:09:50.068Z,20.67
2017-06-06T07:10:15.554Z,20.7
2017-06-06T07:10:41.030Z,20.62
2017-06-06T07:11:06.506Z,20.59
2017-06-06T07:11:32.004Z,20.65
2017-06-06T07:11:57.485Z,20.6
2017-06-06T07:12:22.979Z,20.65
2017-06-06T07:12:48.474Z,20.63
2017-06-06T07:13:13.947Z,20.63
2017-06-06T07:13:39.423Z,20.6
2017-06-06T07:14:04.869Z,20.56
2017-06-06T07:14:30.347Z,20.58
2017-06-06T07:14:55.811Z,20.58
2017-06-06T07:15:21.269Z,20.6
2017-06-06T07:15:46.734Z,20.62
2017-06-06T07:16:12.206Z,20.6
2017-06-06T07:16:37.675Z,20.62
2017-06-06T07:17:03.159Z,20.63
2017-06-06T07:17:28.620Z,20.62
2017-06-06T07:17:54.124Z,20.62
2017-06-06T07:18:19.606Z,20.63
2017-06-06T07:18:45.089Z,20.72
2017-06-06T07:19:10.541Z,20.7
2017-06-06T07:19:35.997Z,20.66
2017-06-06T07:20:01.502Z,20.69
2017-06-06T07:20:26.993Z,20.75
2017-06-06T07:20:52.455Z,20.75
2017-06-06T07:21:17.915Z,20.69
2017-06-06T07:21:43.406Z,20.77
2017-06-06T07:22:08.904Z,20.72
2017-06-06T07:22:34.396Z,20.75
2017-06-06T07:22:59.892Z,20.74
2017-06-06T07:23:25.383Z,20.77
2017-06-06T07:23:50.871Z,20.75
2017-06-06T07:24:16.338Z,20.77
2017-06-06T07:24:41.801Z,20.7
2017-06-06T07:25:07.268Z,20.67
2017-06-06T07:25:32.746Z,20.66
2017-06-06T07:25:58.220Z,20.66
2017-06-06T07:26:23.688Z,20.72
2017-06-06T07:26:49.168Z,20.63
2017-06-06T07:27:14.651Z,20.66
2017-06-06T07:27:40.152Z,20.62
2017-06-06T07:28:05.623Z,20.66
2017-06-06T07:28:31.095Z,20.58
2017-06-06T07:28:56.583Z,20.58
2017-06-06T07:29:22.054Z,20.6
2017-06-06T07:29:47.547Z,20.6
2017-06-06T07:30:13.008Z,20.52
2017-06-06T07:30:38.462Z,20.51
2017-06-06T07:31:03.930Z,20.47
2017-06-06T07:31:29.407Z,20.51
2017-06-06T07:31:54.876Z,20.52
2017-06-06T07:32:20.358Z,20.44
2017-06-06T07:32:45.842Z,20.41
2017-06-06T07:33:11.379Z,20.32
2017-06-06T07:33:36.770Z,20.48
2017-06-06T07:34:02.267Z,20.39
2017-06-06T07:34:27.751Z,20.44
2017-06-06T07:34:53.250Z,20.4
2017-06-06T07:35:18.733Z,20.32
2017-06-06T07:35:44.212Z,20.28
2017-06-06T07:36:09.727Z,20.26
2017-06-06T07:36:35.200Z,20.31
2017-06-06T07:37:00.676Z,20.28
2017-06-06T07:37:26.156Z,20.28
2017-06-06T07:37:51.648Z,20.28
2017-06-06T07:38:17.119Z,20.25
2017-06-06T07:38:42.604Z,20.34
2017-06-06T07:39:08.058Z,20.28
2017-06-06T07:39:33.533Z,20.28
2017-06-06T07:39:58.998Z,20.28
2017-06-06T07:40:24.462Z,20.31
2017-06-06T07:40:49.919Z,20.36
2017-06-06T07:41:15.397Z,20.28
2017-06-06T07:41:40.883Z,20.29
2017-06-06T07:42:06.349Z,20.31
2017-06-06T07:42:31.803Z,20.29
2017-06-06T07:42:57.284Z,20.32
2017-06-06T07:43:22.758Z,20.32
2017-06-06T07:43:48.241Z,20.36
2017-06-06T07:44:13.717Z,20.25
2017-06-06T07:44:39.173Z,20.25
2017-06-06T07:45:04.654Z,20.28
2017-06-06T07:45:30.134Z,20.24
2017-06-06T07:45:55.611Z,20.28
2017-06-06T07:46:21.079Z,20.24
2017-06-06T07:46:46.560Z,20.25
2017-06-06T07:47:12.049Z,20.24
2017-06-06T07:47:37.517Z,20.25
2017-06-06T07:48:02.994Z,20.34
2017-06-06T07:48:28.488Z,20.39
2017-06-06T07:48:53.962Z,20.4
2017-06-06T07:49:19.446Z,20.4
2017-06-06T07:49:44.935Z,20.43
2017-06-06T07:50:10.419Z,20.5
2017-06-06T07:50:35.910Z,20.44
2017-06-06T07:51:01.364Z,20.47
2017-06-06T07:51:26.857Z,20.51
2017-06-06T07:51:52.337Z,20.6
2017-06-06T07:52:17.818Z,20.59
2017-06-06T07:52:43.283Z,20.6
2017-06-06T07:53:08.753Z,20.6
2017-06-06T07:53:34.230Z,20.6
2017-06-06T07:53:59.719Z,20.6
2017-06-06T07:54:25.209Z,20.6
2017-06-06T07:54:50.682Z,20.7
2017-06-06T07:55:16.146Z,20.63
2017-06-06T07:55:41.621Z,20.66
2017-06-06T07:56:07.100Z,20.7
2017-06-06T07:56:32.592Z,20.6
2017-06-06T07:56:58.085Z,20.58
2017-06-06T07:57:23.563Z,20.6
2017-06-06T07:57:49.057Z,20.58
2017-06-06T07:58:14.536Z,20.66
2017-06-06T07:58:40.021Z,20.58
2017-06-06T07:59:05.514Z,20.58
2017-06-06T07:59:31.012Z,20.56
2017-06-06T07:59:56.499Z,20.56
2017-06-06T08:00:21.957Z,20.47
2017-06-06T08:00:47.447Z,20.47
2017-06-06T08:01:12.905Z,20.43
2017-06-06T08:01:38.371Z,20.47
2017-06-06T08:02:03.871Z,20.51
2017-06-06T08:02:29.353Z,20.41
2017-06-06T08:02:54.830Z,20.39
2017-06-06T08:03:20.312Z,20.4
2017-06-06T08:03:45.800Z,20.37
2017-06-06T08:04:11.274Z,20.37
2017-06-06T08:04:36.757Z,20.26
2017-06-06T08:05:02.253Z,20.24
2017-06-06T08:05:27.743Z,20.29
2017-06-06T08:05:53.229Z,20.26
2017-06-06T08:06:18.720Z,20.34
2017-06-06T08:06:44.200Z,20.36
2017-06-06T08:07:09.676Z,20.28
2017-06-06T08:07:35.160Z,20.28
2017-06-06T08:08:00.660Z,20.26
2017-06-06T08:08:26.143Z,20.32
2017-06-06T08:08:51.628Z,20.24
2017-06-06T08:09:17.086Z,20.29
2017-06-06T08:09:42.562Z,20.31
2017-06-06T08:10:08.041Z,20.39
2017-06-06T08:10:33.518Z,20.34
2017-06-06T08:10:59.011Z,20.39
2017-06-06T08:11:24.479Z,20.37
2017-06-06T08:11:49.954Z,20.39
2017-06-06T08:12:15.411Z,20.41
2017-06-06T08:12:40.899Z,20.48
2017-06-06T08:13:06.369Z,20.5
2017-06-06T08:13:31.849Z,20.52
2017-06-06T08:13:57.337Z,20.59
2017-06-06T08:14:22.822Z,20.59
2017-06-06T08:14:48.293Z,20.58
2017-06-06T08:15:13.781Z,20.58
2017-06-06T08:15:39.280Z,20.58
2017-06-06T08:16:04.774Z,20.59
2017-06-06T08:16:30.263Z,20.59
2017-06-06T08:16:55.738Z,20.66
2017-06-06T08:17:21.219Z,20.66
2017-06-06T08:17:46.706Z,20.69
2017-06-06T08:18:12.192Z,20.74
2017-06-06T08:18:37.678Z,20.72
2017-06-06T08:19:03.147Z,20.75
2017-06-06T08:19:28.634Z,20.69
2017-06-06T08:19:54.125Z,20.77
2017-06-06T08:20:19.597Z,20.7
2017-06-06T08:20:45.074Z,20.8
2017-06-06T08:21:10.548Z,20.81
2017-06-06T08:21:35.995Z,20.81
2017-06-06T08:22:01.489Z,20.84
2017-06-06T08:22:26.958Z,20.77
2017-06-06T08:22:52.430Z,20.8
2017-06-06T08:23:17.901Z,20.82
2017-06-06T08:23:43.367Z,20.82
2017-06-06T08:24:08.849Z,20.81
2017-06-06T08:24:34.339Z,20.81
2017-06-06T08:24:59.835Z,20.82
2017-06-06T08:25:25.304Z,20.82
2017-06-06T08:25:50.768Z,20.81
2017-06-06T08:26:16.221Z,20.84
2017-06-06T08:26:41.730Z,20.81
2017-06-06T08:27:07.204Z,20.8
2017-06-06T08:27:32.682Z,20.81
2017-06-06T08:27:58.153Z,20.87
2017-06-06T08:28:23.638Z,20.92
2017-06-06T08:28:49.128Z,20.93
2017-06-06T08:29:14.606Z,20.87
2017-06-06T08:29:40.108Z,20.96
2017-06-06T08:30:05.596Z,20.95
2017-06-06T08:30:31.058Z,21.07
2017-06-06T08:30:56.538Z,21.11
2017-06-06T08:31:22.018Z,21.12
2017-06-06T08:31:47.506Z,21.07
2017-06-06T08:32:12.961Z,21.14
2017-06-06T08:32:38.516Z,21.22
2017-06-06T08:33:03.946Z,21.24
2017-06-06T08:33:29.419Z,21.2
2017-06-06T08:33:54.912Z,21.29
2017-06-06T08:34:20.409Z,21.2
2017-06-06T08:34:45.877Z,21.21
2017-06-06T08:35:11.349Z,21.3
2017-06-06T08:35:36.814Z,21.24
2017-06-06T08:36:02.308Z,21.35
2017-06-06T08:36:27.794Z,21.25
2017-06-06T08:36:53.274Z,21.25
2017-06-06T08:37:18.757Z,21.3
2017-06-06T08:37:44.239Z,21.2
2017-06-06T08:38:09.718Z,21.24
2017-06-06T08:38:35.210Z,21.22
2017-06-06T08:39:00.704Z,21.21
2017-06-06T08:39:26.184Z,21.18
2017-06-06T08:39:51.673Z,21.15
2017-06-06T08:40:17.143Z,21.18
2017-06-06T08:40:42.639Z,21.05
2017-06-06T08:41:08.112Z,21.11
2017-06-06T08:41:33.575Z,21.11
2017-06-06T08:41:59.077Z,21.06
2017-06-06T08:42:24.571Z,21.09
2017-06-06T08:42:50.046Z,21.06
2017-06-06T08:43:15.528Z,21.09
2017-06-06T08:43:41.026Z,20.96
2017-06-06T08:44:06.512Z,21
2017-06-06T08:44:31.994Z,20.93
2017-06-06T08:44:57.457Z,20.95
2017-06-06T08:45:22.947Z,21
2017-06-06T08:45:48.438Z,20.93
2017-06-06T08:46:13.916Z,20.84
2017-06-06T08:46:39.413Z,20.93
2017-06-06T08:47:04.912Z,20.92
2017-06-06T08:47:30.374Z,20.8
2017-06-06T08:47:55.862Z,20.77
2017-06-06T08:48:21.314Z,20.75
2017-06-06T08:48:46.783Z,20.85
2017-06-06T08:49:12.289Z,20.72
2017-06-06T08:49:37.786Z,20.78
2017-06-06T08:50:03.287Z,20.69
2017-06-06T08:50:28.785Z,20.7
2017-06-06T08:50:54.268Z,20.74
2017-06-06T08:51:19.741Z,20.66
2017-06-06T08:51:45.226Z,20.62
2017-06-06T08:52:10.706Z,20.6
2017-06-06T08:52:36.189Z,20.58
2017-06-06T08:53:01.686Z,20.58
2017-06-06T08:53:27.181Z,20.59
2017-06-06T08:53:52.663Z,20.6
2017-06-06T08:54:18.137Z,20.63
2017-06-06T08:54:43.624Z,20.51
2017-06-06T08:55:09.083Z,20.51
2017-06-06T08:55:34.567Z,20.55
2017-06-06T08:56:00.039Z,20.5
2017-06-06T08:56:25.508Z,20.55
2017-06-06T08:56:51.002Z,20.5
2017-06-06T08:57:16.516Z,20.52
2017-06-06T08:57:42.018Z,20.48
2017-06-06T08:58:07.493Z,20.5
2017-06-06T08:58:32.988Z,20.5
2017-06-06T08:58:58.461Z,20.56
2017-06-06T08:59:23.948Z,20.58
2017-06-06T08:59:49.427Z,20.51
2017-06-06T09:00:14.926Z,20.51
2017-06-06T09:00:40.410Z,20.55
2017-06-06T09:01:05.869Z,20.48
2017-06-06T09:01:31.337Z,20.51
2017-06-06T09:01:56.840Z,20.51
2017-06-06T09:02:22.307Z,20.43
2017-06-06T09:02:47.805Z,20.47
2017-06-06T09:03:13.295Z,20.5
2017-06-06T09:03:38.767Z,20.48
2017-06-06T09:04:04.277Z,20.41
2017-06-06T09:04:29.756Z,20.39
2017-06-06T09:04:55.226Z,20.43
2017-06-06T09:05:20.716Z,20.41
2017-06-06T09:05:46.195Z,20.36
2017-06-06T09:06:11.683Z,20.39
2017-06-06T09:06:37.163Z,20.37
2017-06-06T09:07:02.623Z,20.4
2017-06-06T09:07:28.089Z,20.37
2017-06-06T09:07:53.568Z,20.39
2017-06-06T09:08:19.040Z,20.39
2017-06-06T09:08:44.504Z,20.4
2017-06-06T09:09:09.992Z,20.34
2017-06-06T09:09:35.469Z,20.44
2017-06-06T09:10:00.945Z,20.39
2017-06-06T09:10:26.427Z,20.39
2017-06-06T09:10:51.885Z,20.34
2017-06-06T09:11:17.374Z,20.32
2017-06-06T09:11:42.873Z,20.28
2017-06-06T09:12:08.365Z,20.22
2017-06-06T09:12:33.841Z,20.28
2017-06-06T09:12:59.319Z,20.25
2017-06-06T09:13:24.797Z,20.28
2017-06-06T09:13:50.290Z,20.26
2017-06-06T09:14:15.778Z,20.14
2017-06-06T09:14:41.287Z,20.19
2017-06-06T09:15:06.772Z,20.16
2017-06-06T09:15:32.232Z,20.16
2017-06-06T09:15:57.701Z,20.16
2017-06-06T09:16:23.189Z,20.07
2017-06-06T09:16:48.689Z,19.96
2017-06-06T09:17:14.159Z,19.99
2017-06-06T09:17:39.638Z,19.96
2017-06-06T09:18:05.123Z,19.96
2017-06-06T09:18:30.602Z,19.92
2017-06-06T09:18:56.079Z,19.99
2017-06-06T09:19:21.568Z,19.88
2017-06-06T09:19:47.042Z,19.82
2017-06-06T09:20:12.519Z,19.79
2017-06-06T09:20:37.988Z,19.84
2017-06-06T09:21:03.459Z,19.84
2017-06-06T09:21:28.922Z,19.81
2017-06-06T09:21:54.414Z,19.69
2017-06-06T09:22:19.906Z,19.69
2017-06-06T09:22:45.387Z,19.58
2017-06-06T09:23:10.873Z,19.56
2017-06-06T09:23:36.356Z,19.59
2017-06-06T09:24:01.846Z,19.69
2017-06-06T09:24:27.340Z,19.58
2017-06-06T09:24:52.825Z,19.59
2017-06-06T09:25:18.329Z,19.54
2017-06-06T09:25:43.810Z,19.56
2017-06-06T09:26:09.293Z,19.51
2017-06-06T09:26:34.772Z,19.55
2017-06-06T09:27:00.246Z,19.47
2017-06-06T09:27:25.734Z,19.45
2017-06-06T09:27:51.233Z,19.55
2017-06-06T09:28:16.701Z,19.52
2017-06-06T09:28:42.169Z,19.44
2017-06-06T09:29:07.656Z,19.52
2017-06-06T09:29:33.156Z,19.45
2017-06-06T09:29:58.623Z,19.52
2017-06-06T09:30:24.135Z,19.51
2017-06-06T09:30:49.628Z,19.51
2017-06-06T09:31:15.102Z,19.58
2017-06-06T09:31:40.572Z,19.54
2017-06-06T09:32:06.034Z,19.48
2017-06-06T09:32:31.525Z,19.51
2017-06-06T09:32:57.022Z,19.55
2017-06-06T09:33:22.522Z,19.51
2017-06-06T09:33:47.987Z,19.52
2017-06-06T09:34:13.460Z,19.58
2017-06-06T09:34:38.952Z,19.51
2017-06-06T09:35:04.441Z,19.56
2017-06-06T09:35:29.932Z,19.54
2017-06-06T09:35:55.407Z,19.56
2017-06-06T09:36:20.927Z,19.63
2017-06-06T09:36:46.398Z,19.56
2017-06-06T09:37:11.907Z,19.59
2017-06-06T09:37:37.367Z,19.55
2017-06-06T09:38:02.847Z,19.59
2017-06-06T09:38:28.318Z,19.54
2017-06-06T09:38:53.793Z,19.62
2017-06-06T09:39:19.312Z,19.69
2017-06-06T09:39:44.810Z,19.59
2017-06-06T09:40:10.286Z,19.62
2017-06-06T09:40:35.808Z,19.63
2017-06-06T09:41:01.281Z,19.71
2017-06-06T09:41:26.775Z,19.73
2017-06-06T09:41:52.258Z,19.82
2017-06-06T09:42:17.738Z,19.84
2017-06-06T09:42:43.212Z,19.89
2017-06-06T09:43:08.685Z,19.95
2017-06-06T09:43:34.160Z,19.99
2017-06-06T09:43:59.650Z,20.04
2017-06-06T09:44:25.130Z,20.09
2017-06-06T09:44:50.607Z,20.11
2017-06-06T09:45:16.120Z,20.13
2017-06-06T09:45:41.603Z,20.19
2017-06-06T09:46:07.077Z,20.13
2017-06-06T09:46:32.564Z,20.11
2017-06-06T09:46:58.046Z,20.25
2017-06-06T09:47:23.531Z,20.1
2017-06-06T09:47:49.022Z,20.26
2017-06-06T09:48:14.525Z,20.18
2017-06-06T09:48:40.015Z,20.14
2017-06-06T09:49:05.479Z,20.16
2017-06-06T09:49:30.950Z,20.11
2017-06-06T09:49:56.438Z,20.1
2017-06-06T09:50:21.919Z,20.13
2017-06-06T09:50:47.406Z,20.13
2017-06-06T09:51:12.906Z,20.18
2017-06-06T09:51:38.392Z,20.18
2017-06-06T09:52:03.865Z,20.14
2017-06-06T09:52:29.351Z,20.18
2017-06-06T09:52:54.859Z,20.28
2017-06-06T09:53:20.335Z,20.25
2017-06-06T09:53:45.813Z,20.22
2017-06-06T09:54:11.336Z,20.31
2017-06-06T09:54:36.819Z,20.28
2017-06-06T09:55:02.311Z,20.34
2017-06-06T09:55:27.792Z,20.34
2017-06-06T09:55:53.256Z,20.26
2017-06-06T09:56:18.775Z,20.28
2017-06-06T09:56:44.261Z,20.25
2017-06-06T09:57:09.730Z,20.34
2017-06-06T09:57:35.239Z,20.26
2017-06-06T09:58:00.723Z,20.21
2017-06-06T09:58:26.195Z,20.37
2017-06-06T09:58:51.672Z,20.32
2017-06-06T09:59:17.110Z,20.32
2017-06-06T09:59:42.610Z,20.25
2017-06-06T10:00:08.097Z,20.26
2017-06-06T10:00:33.591Z,20.36
2017-06-06T10:00:59.084Z,20.31
2017-06-06T10:01:24.554Z,20.36
2017-06-06T10:01:50.050Z,20.44
2017-06-06T10:02:15.525Z,20.39
2017-06-06T10:02:41.012Z,20.34
2017-06-06T10:03:06.481Z,20.28
2017-06-06T10:03:31.957Z,20.26
2017-06-06T10:03:57.459Z,20.36
2017-06-06T10:04:22.939Z,20.29
2017-06-06T10:04:48.436Z,20.29
2017-06-06T10:05:13.931Z,20.26
2017-06-06T10:05:39.406Z,20.19
2017-06-06T10:06:04.884Z,20.24
2017-06-06T10:06:30.368Z,20.14
2017-06-06T10:06:55.859Z,20.06
2017-06-06T10:07:21.339Z,20.06
2017-06-06T10:07:46.835Z,20.07
2017-06-06T10:08:12.318Z,20.04
2017-06-06T10:08:37.783Z,20.03
2017-06-06T10:09:03.246Z,19.94
2017-06-06T10:09:28.730Z,19.92
2017-06-06T10:09:54.211Z,19.89
2017-06-06T10:10:19.697Z,19.86
2017-06-06T10:10:45.181Z,19.82
2017-06-06T10:11:10.667Z,19.74
2017-06-06T10:11:36.111Z,19.73
2017-06-06T10:12:01.598Z,19.56
2017-06-06T10:12:27.090Z,19.62
2017-06-06T10:12:52.543Z,19.59
2017-06-06T10:13:18.028Z,19.62
2017-06-06T10:13:43.502Z,19.47
2017-06-06T10:14:08.986Z,19.48
2017-06-06T10:14:34.478Z,19.4
2017-06-06T10:14:59.970Z,19.39
2017-06-06T10:15:25.473Z,19.26
2017-06-06T10:16:23.451Z,19.3